createdAt,value
2023-08-24T00:01:37.957Z,6.75
2023-08-24T00:04:06.597Z,9.30
2023-08-24T00:06:34.911Z,7.95
2023-08-24T00:09:06.288Z,9.00
2023-08-24T00:11:34.629Z,8.05
2023-08-24T00:14:03.523Z,9.50
2023-08-24T00:16:31.806Z,7.63
2023-08-24T00:19:00.038Z,6.97
2023-08-24T00:21:29.725Z,8.57
2023-08-24T00:23:58.034Z,9.38
2023-08-24T00:26:27.664Z,7.53
2023-08-24T00:28:56.231Z,6.38
2023-08-24T00:31:24.509Z,7.32
2023-08-24T00:33:52.870Z,6.65
2023-08-24T00:36:21.786Z,7.50
2023-08-24T00:38:52.489Z,7.50
2023-08-24T00:41:22.408Z,6.35
2023-08-24T00:43:52.234Z,7.38
2023-08-24T00:46:20.756Z,8.48
2023-08-24T00:48:49.698Z,6.43
2023-08-24T00:51:17.988Z,9.45
2023-08-24T00:53:46.332Z,8.18
2023-08-24T00:56:14.638Z,7.47
2023-08-24T00:58:43.003Z,7.93
2023-08-24T01:01:12.698Z,8.52
2023-08-24T01:03:40.977Z,5.75
2023-08-24T01:06:09.227Z,5.55
2023-08-24T01:08:37.712Z,9.27
2023-08-24T01:11:10.927Z,6.05
2023-08-24T01:13:44.645Z,8.60
2023-08-24T01:16:16.549Z,6.13
2023-08-24T01:18:45.410Z,7.97
2023-08-24T01:21:14.182Z,7.05
2023-08-24T01:23:46.275Z,7.57
2023-08-24T01:26:16.864Z,7.65
2023-08-24T01:28:46.310Z,7.60
2023-08-24T01:31:16.709Z,6.82
2023-08-24T01:33:45.413Z,7.53
2023-08-24T01:36:14.418Z,7.47
2023-08-24T01:38:42.881Z,9.25
2023-08-24T01:41:18.838Z,10.55
2023-08-24T01:43:49.070Z,6.57
2023-08-24T01:46:18.501Z,6.35
2023-08-24T01:48:47.553Z,8.02
2023-08-24T01:51:16.465Z,14.73
2023-08-24T01:53:45.178Z,7.20
2023-08-24T01:56:13.688Z,7.15
2023-08-24T01:58:43.369Z,5.63
2023-08-24T02:01:13.640Z,6.97
2023-08-24T02:03:42.314Z,6.15
2023-08-24T02:06:10.879Z,6.40
2023-08-24T02:08:39.215Z,9.40
2023-08-24T02:11:07.921Z,5.95
2023-08-24T02:13:36.193Z,6.00
2023-08-24T02:16:06.490Z,7.00
2023-08-24T02:18:34.971Z,6.20
2023-08-24T02:21:03.606Z,7.35
2023-08-24T02:23:32.107Z,7.15
2023-08-24T02:26:00.727Z,6.38
2023-08-24T02:28:29.009Z,8.18
2023-08-24T02:30:57.720Z,6.00
2023-08-24T02:33:27.379Z,11.32
2023-08-24T02:35:55.693Z,6.65
2023-08-24T02:38:23.949Z,5.93
2023-08-24T02:40:52.170Z,8.27
2023-08-24T02:43:20.397Z,6.80
2023-08-24T02:45:48.684Z,6.03
2023-08-24T02:48:17.038Z,6.93
2023-08-24T02:50:49.710Z,5.82
2023-08-24T02:53:17.948Z,7.78
2023-08-24T02:55:46.225Z,7.43
2023-08-24T02:58:14.498Z,6.47
2023-08-24T03:00:42.762Z,7.20
2023-08-24T03:03:13.348Z,6.55
2023-08-24T03:05:41.641Z,5.85
2023-08-24T03:08:11.217Z,6.18
2023-08-24T03:10:39.476Z,7.38
2023-08-24T03:13:07.891Z,5.90
2023-08-24T03:15:39.629Z,7.53
2023-08-24T03:18:08.302Z,6.22
2023-08-24T03:20:36.622Z,11.65
2023-08-24T03:23:05.023Z,8.93
2023-08-24T03:25:38.062Z,5.72
2023-08-24T03:28:06.903Z,7.93
2023-08-24T03:30:35.624Z,6.40
2023-08-24T03:33:04.334Z,8.80
2023-08-24T03:35:33.281Z,6.82
2023-08-24T03:38:01.743Z,12.38
2023-08-24T03:40:30.060Z,6.50
2023-08-24T03:42:59.636Z,6.47
2023-08-24T03:45:27.982Z,7.43
2023-08-24T03:47:56.768Z,9.38
2023-08-24T03:50:25.094Z,9.23
2023-08-24T03:52:55.352Z,6.72
2023-08-24T03:55:24.072Z,9.30
2023-08-24T03:57:52.726Z,6.40
2023-08-24T04:00:22.685Z,6.60
2023-08-24T04:02:50.971Z,6.38
2023-08-24T04:05:19.305Z,6.88
2023-08-24T04:07:47.743Z,7.00
2023-08-24T04:10:16.155Z,8.35
2023-08-24T04:12:44.495Z,6.90
2023-08-24T04:15:12.983Z,8.32
2023-08-24T04:17:44.674Z,9.65
2023-08-24T04:20:13.823Z,7.82
2023-08-24T04:22:42.192Z,9.45
2023-08-24T04:25:10.846Z,10.82
2023-08-24T04:27:39.181Z,10.10
2023-08-24T04:30:12.622Z,9.23
2023-08-24T04:32:40.966Z,7.13
2023-08-24T04:35:11.458Z,8.68
2023-08-24T04:37:40.236Z,8.18
2023-08-24T04:40:09.397Z,9.80
2023-08-24T04:42:37.953Z,8.77
2023-08-24T04:45:06.509Z,7.60
2023-08-24T04:47:34.802Z,10.05
2023-08-24T04:50:03.334Z,9.23
2023-08-24T04:52:32.926Z,9.88
2023-08-24T04:55:01.246Z,9.88
2023-08-24T04:57:29.527Z,10.57
2023-08-24T04:59:57.746Z,11.70
2023-08-24T05:02:26.078Z,11.02
2023-08-24T05:04:54.436Z,9.27
2023-08-24T05:07:22.937Z,10.70
2023-08-24T05:09:52.521Z,11.00
2023-08-24T05:12:20.846Z,12.40
2023-08-24T05:14:49.104Z,11.17
2023-08-24T05:17:17.365Z,15.48
2023-08-24T05:19:45.603Z,12.10
2023-08-24T05:22:13.899Z,12.25
2023-08-24T05:28:12.159Z,12.52
2023-08-24T05:30:40.537Z,12.38
2023-08-24T05:33:08.802Z,11.93
2023-08-24T05:35:37.083Z,11.63
2023-08-24T05:38:05.540Z,12.93
2023-08-24T05:40:36.312Z,16.20
2023-08-24T05:43:04.641Z,12.63
2023-08-24T05:45:34.237Z,11.98
2023-08-24T05:48:02.571Z,12.15
2023-08-24T05:50:30.855Z,13.07
2023-08-24T05:52:59.112Z,15.70
2023-08-24T05:55:27.420Z,12.80
2023-08-24T05:57:55.642Z,13.43
2023-08-24T06:00:24.380Z,13.00
2023-08-24T06:02:53.992Z,13.80
2023-08-24T06:05:22.253Z,14.68
2023-08-24T06:07:51.047Z,12.48
2023-08-24T06:10:19.462Z,13.20
2023-08-24T06:12:47.738Z,14.05
2023-08-24T06:15:16.534Z,14.57
2023-08-24T06:17:44.911Z,14.95
2023-08-24T06:20:15.996Z,14.82
2023-08-24T06:22:44.249Z,13.82
2023-08-24T06:25:12.494Z,17.75
2023-08-24T06:27:40.795Z,14.25
2023-08-24T06:30:09.518Z,14.93
2023-08-24T06:32:38.124Z,13.35
2023-08-24T06:35:07.668Z,14.38
2023-08-24T06:37:37.329Z,15.95
2023-08-24T06:40:06.826Z,15.70
2023-08-24T06:42:35.465Z,15.45
2023-08-24T06:45:03.764Z,15.02
2023-08-24T06:47:32.040Z,14.98
2023-08-24T06:50:01.296Z,14.55
2023-08-24T06:52:29.558Z,16.25
2023-08-24T06:54:59.136Z,16.35
2023-08-24T06:57:27.446Z,17.40
2023-08-24T06:59:55.702Z,15.02
2023-08-24T07:02:24.281Z,15.98
2023-08-24T07:04:52.573Z,16.60
2023-08-24T07:07:21.224Z,16.75
2023-08-24T07:09:49.556Z,17.77
2023-08-24T07:12:19.414Z,18.13
2023-08-24T07:14:47.706Z,17.20
2023-08-24T07:17:16.071Z,18.90
2023-08-24T07:19:44.326Z,18.50
2023-08-24T07:22:12.588Z,18.48
2023-08-24T07:24:45.877Z,18.33
2023-08-24T07:27:14.787Z,17.15
2023-08-24T07:29:44.402Z,17.27
2023-08-24T07:32:12.802Z,17.38
2023-08-24T07:34:41.217Z,16.20
2023-08-24T07:37:09.480Z,17.08
2023-08-24T07:39:37.767Z,16.98
2023-08-24T07:42:06.253Z,17.40
2023-08-24T07:44:34.536Z,15.70
2023-08-24T07:47:04.139Z,15.40
2023-08-24T07:49:32.453Z,14.70
2023-08-24T07:52:00.721Z,15.13
2023-08-24T07:54:29.112Z,14.15
2023-08-24T07:56:57.361Z,13.50
2023-08-24T07:59:25.745Z,14.60
2023-08-24T08:01:54.066Z,13.18
2023-08-24T08:04:23.977Z,12.65
2023-08-24T08:06:52.222Z,14.30
2023-08-24T08:09:20.539Z,14.05
2023-08-24T08:11:48.843Z,11.98
2023-08-24T08:14:17.126Z,13.23
2023-08-24T08:16:45.417Z,12.32
2023-08-24T08:19:13.740Z,13.23
2023-08-24T08:21:43.403Z,13.25
2023-08-24T08:24:18.095Z,12.63
2023-08-24T08:26:53.784Z,12.15
2023-08-24T08:29:22.065Z,12.25
2023-08-24T08:31:50.537Z,11.65
2023-08-24T08:34:18.894Z,11.95
2023-08-24T08:36:48.784Z,11.30
2023-08-24T08:39:19.066Z,11.70
2023-08-24T08:41:48.635Z,12.40
2023-08-24T08:44:17.079Z,11.93
2023-08-24T08:46:46.797Z,11.25
2023-08-24T08:49:17.940Z,11.00
2023-08-24T08:51:46.205Z,10.52
2023-08-24T08:54:15.833Z,10.35
2023-08-24T08:56:44.321Z,10.55
2023-08-24T08:59:15.029Z,10.70
2023-08-24T09:01:45.145Z,10.45
2023-08-24T09:04:14.197Z,10.05
2023-08-24T09:06:42.806Z,11.27
2023-08-24T09:09:11.164Z,10.88
2023-08-24T09:11:41.049Z,10.75
2023-08-24T09:14:09.460Z,10.77
2023-08-24T09:16:38.471Z,11.15
2023-08-24T09:19:08.777Z,10.27
2023-08-24T09:21:40.590Z,9.88
2023-08-24T09:24:09.246Z,10.38
2023-08-24T09:26:43.520Z,10.82
2023-08-24T09:29:16.680Z,9.48
2023-08-24T09:31:45.923Z,8.75
2023-08-24T09:34:14.505Z,8.57
2023-08-24T09:36:44.898Z,9.50
2023-08-24T09:39:15.234Z,9.02
2023-08-24T09:41:44.117Z,7.68
2023-08-24T09:44:13.155Z,7.95
2023-08-24T09:46:44.525Z,8.52
2023-08-24T09:49:13.918Z,9.32
2023-08-24T09:51:43.036Z,9.52
2023-08-24T09:54:12.160Z,9.43
2023-08-24T09:56:41.137Z,10.55
2023-08-24T09:59:14.689Z,9.68
2023-08-24T10:01:45.922Z,7.75
2023-08-24T10:04:15.118Z,6.13
2023-08-24T10:06:43.414Z,8.60
2023-08-24T10:09:14.549Z,6.22
2023-08-24T10:11:45.289Z,9.52
2023-08-24T10:14:16.572Z,7.28
2023-08-24T10:16:47.401Z,6.30
2023-08-24T10:19:16.525Z,9.02
2023-08-24T10:21:45.158Z,6.07
2023-08-24T10:24:14.382Z,7.10
2023-08-24T10:26:43.107Z,8.68
2023-08-24T10:29:11.643Z,5.97
2023-08-24T10:31:40.199Z,5.55
2023-08-24T10:34:10.480Z,9.27
2023-08-24T10:36:40.885Z,8.70
2023-08-24T10:39:09.548Z,6.90
2023-08-24T10:41:50.045Z,6.40
2023-08-24T10:44:24.946Z,9.88
2023-08-24T10:47:10.927Z,9.45
2023-08-24T10:49:40.587Z,5.75
2023-08-24T10:52:21.991Z,5.72
2023-08-24T10:54:50.875Z,5.35
2023-08-24T10:57:22.969Z,5.28
2023-08-24T11:00:01.245Z,6.30
2023-08-24T11:02:29.852Z,4.25
2023-08-24T11:05:10.110Z,8.38
2023-08-24T11:07:50.298Z,8.88
2023-08-24T11:10:19.596Z,6.80
2023-08-24T11:13:18.192Z,6.82
2023-08-24T11:15:47.251Z,5.95
2023-08-24T11:18:23.532Z,4.85
2023-08-24T11:20:54.095Z,5.65
2023-08-24T11:23:25.806Z,7.57
2023-08-24T11:25:59.802Z,5.65
2023-08-24T11:28:31.522Z,4.65
2023-08-24T11:31:00.933Z,4.75
2023-08-24T11:33:30.274Z,4.75
2023-08-24T11:36:00.347Z,6.50
2023-08-24T11:38:39.472Z,6.65
2023-08-24T11:41:14.674Z,4.55
2023-08-24T11:43:42.989Z,5.03
2023-08-24T11:46:11.334Z,4.47
2023-08-24T11:48:40.933Z,5.88
2023-08-24T11:51:13.618Z,4.95
2023-08-24T11:53:42.857Z,8.93
2023-08-24T11:56:11.948Z,6.30
2023-08-24T11:58:41.266Z,6.25
2023-08-24T12:01:10.705Z,12.90
2023-08-24T12:03:39.295Z,6.40
2023-08-24T12:06:13.883Z,6.07
2023-08-24T12:08:42.785Z,3.88
2023-08-24T12:11:15.892Z,4.70
2023-08-24T12:13:47.682Z,5.70
2023-08-24T12:16:16.553Z,4.43
2023-08-24T12:18:52.435Z,4.82
2023-08-24T12:21:22.265Z,6.78
2023-08-24T12:24:00.323Z,6.90
2023-08-24T12:26:28.788Z,3.67
2023-08-24T12:28:58.685Z,6.72
2023-08-24T12:31:30.029Z,5.55
2023-08-24T12:34:02.208Z,5.55
2023-08-24T12:36:31.861Z,6.28
2023-08-24T12:39:01.337Z,4.80
2023-08-24T12:41:29.688Z,7.20
2023-08-24T12:43:57.985Z,5.85
2023-08-24T12:46:26.378Z,4.57
2023-08-24T12:48:57.223Z,4.43
2023-08-24T12:51:26.245Z,5.32
2023-08-24T12:53:55.994Z,5.55
2023-08-24T12:56:24.271Z,4.00
2023-08-24T12:58:52.579Z,7.10
2023-08-24T13:01:23.511Z,5.53
2023-08-24T13:03:51.988Z,5.57
2023-08-24T13:06:24.645Z,4.75
2023-08-24T13:08:53.642Z,9.32
2023-08-24T13:11:24.002Z,5.15
2023-08-24T13:13:52.699Z,7.60
2023-08-24T13:16:21.279Z,6.57
2023-08-24T13:18:49.869Z,4.43
2023-08-24T13:21:18.825Z,6.68
2023-08-24T13:23:48.342Z,7.18
2023-08-24T13:26:24.598Z,7.43
2023-08-24T13:28:52.964Z,5.53
2023-08-24T13:31:21.248Z,6.82
2023-08-24T13:33:49.537Z,5.30
2023-08-24T13:36:17.819Z,7.57
2023-08-24T13:38:46.920Z,7.20
2023-08-24T13:41:15.355Z,6.55
2023-08-24T13:43:45.341Z,4.85
2023-08-24T13:46:13.635Z,4.82
2023-08-24T13:48:41.969Z,4.63
2023-08-24T13:51:10.349Z,3.95
2023-08-24T13:53:38.726Z,7.30
2023-08-24T13:56:07.558Z,5.88
2023-08-24T13:58:36.663Z,4.82
2023-08-24T14:01:06.436Z,4.57
2023-08-24T14:03:35.755Z,5.55
2023-08-24T14:06:04.421Z,5.82
2023-08-24T14:08:34.788Z,5.07
2023-08-24T14:11:03.272Z,5.82
2023-08-24T14:13:32.443Z,4.35
2023-08-24T14:16:00.911Z,4.43
2023-08-24T14:18:31.612Z,5.90
2023-08-24T14:21:00.226Z,8.68
2023-08-24T14:23:28.510Z,6.38
2023-08-24T14:25:56.817Z,6.45
2023-08-24T14:28:25.422Z,6.63
2023-08-24T14:30:53.800Z,5.18
2023-08-24T14:33:22.018Z,5.55
2023-08-24T14:35:55.220Z,5.60
2023-08-24T14:38:23.498Z,5.57
2023-08-24T14:40:51.764Z,5.00
2023-08-24T14:43:20.030Z,5.00
2023-08-24T14:45:48.409Z,7.43
2023-08-24T14:48:16.882Z,7.20
2023-08-24T14:50:45.261Z,5.45
2023-08-24T14:53:14.971Z,8.30
2023-08-24T14:55:43.240Z,6.30
2023-08-24T14:58:11.530Z,4.88
2023-08-24T15:00:39.782Z,6.53
2023-08-24T15:03:08.117Z,5.13
2023-08-24T15:05:40.796Z,5.82
2023-08-24T15:08:09.039Z,4.43
2023-08-24T15:10:38.617Z,7.93
2023-08-24T15:13:07.132Z,7.03
2023-08-24T15:15:38.462Z,5.20
2023-08-24T15:18:07.364Z,6.00
2023-08-24T15:20:35.889Z,8.13
2023-08-24T15:23:04.258Z,4.90
2023-08-24T15:25:32.616Z,6.25
2023-08-24T15:28:02.244Z,6.10
2023-08-24T15:30:30.513Z,6.03
2023-08-24T15:32:58.858Z,4.93
2023-08-24T15:35:29.379Z,5.97
2023-08-24T15:37:57.778Z,8.48
2023-08-24T15:40:26.119Z,5.57
2023-08-24T15:42:54.370Z,3.95
2023-08-24T15:45:24.058Z,8.75
2023-08-24T15:47:52.936Z,6.13
2023-08-24T15:50:21.536Z,9.43
2023-08-24T15:52:50.013Z,6.10
2023-08-24T15:55:18.741Z,6.07
2023-08-24T15:57:46.987Z,5.20
2023-08-24T16:00:16.265Z,7.85
2023-08-24T16:02:46.177Z,7.60
2023-08-24T16:05:14.952Z,5.28
2023-08-24T16:07:43.264Z,4.88
2023-08-24T16:10:12.064Z,4.60
2023-08-24T16:12:40.328Z,7.00
2023-08-24T16:15:09.202Z,4.75
2023-08-24T16:17:37.587Z,5.25
2023-08-24T16:20:10.679Z,8.85
2023-08-24T16:22:40.682Z,5.28
2023-08-24T16:25:10.004Z,4.53
2023-08-24T16:27:39.692Z,6.50
2023-08-24T16:30:09.499Z,9.07
2023-08-24T16:32:38.110Z,11.27
2023-08-24T16:35:08.371Z,6.85
2023-08-24T16:37:36.740Z,6.00
2023-08-24T16:40:05.828Z,5.40
2023-08-24T16:42:34.075Z,7.22
2023-08-24T16:45:02.376Z,5.32
2023-08-24T16:47:31.865Z,7.55
2023-08-24T16:50:00.255Z,4.35
2023-08-24T16:52:29.827Z,6.57
2023-08-24T16:54:58.211Z,5.25
2023-08-24T16:57:26.637Z,7.05
2023-08-24T16:59:55.234Z,6.57
2023-08-24T17:02:23.547Z,6.75
2023-08-24T17:04:51.871Z,5.22
2023-08-24T17:07:20.394Z,5.10
2023-08-24T17:09:50.053Z,5.28
2023-08-24T17:12:19.753Z,4.55
2023-08-24T17:14:48.014Z,6.18
2023-08-24T17:17:16.298Z,4.53
2023-08-24T17:19:44.582Z,4.78
2023-08-24T17:22:12.954Z,5.68
2023-08-24T17:24:41.364Z,6.38
2023-08-24T17:27:10.936Z,5.68
2023-08-24T17:29:39.241Z,5.88
2023-08-24T17:32:07.597Z,6.97
2023-08-24T17:34:35.884Z,7.47
2023-08-24T17:37:04.194Z,5.13
2023-08-24T17:39:32.436Z,4.85
2023-08-24T17:42:00.696Z,3.28
2023-08-24T17:44:31.105Z,4.72
2023-08-24T17:46:59.424Z,5.38
2023-08-24T17:49:27.761Z,5.25
2023-08-24T17:51:56.075Z,7.25
2023-08-24T17:54:24.389Z,8.60
2023-08-24T17:56:52.667Z,9.38
2023-08-24T17:59:20.928Z,7.65
2023-08-24T18:01:50.521Z,5.72
2023-08-24T18:04:18.791Z,10.93
2023-08-24T18:06:47.076Z,9.10
2023-08-24T18:09:16.380Z,9.13
2023-08-24T18:11:44.682Z,6.72
2023-08-24T18:14:12.920Z,5.65
2023-08-24T18:16:41.542Z,6.25
2023-08-24T18:19:11.747Z,7.60
2023-08-24T18:21:40.032Z,8.90
2023-08-24T18:24:08.442Z,8.40
2023-08-24T18:26:37.601Z,5.20
2023-08-24T18:29:06.317Z,5.00
2023-08-24T18:31:34.645Z,7.25
2023-08-24T18:34:03.322Z,6.78
2023-08-24T18:36:32.878Z,5.95
2023-08-24T18:39:01.137Z,6.95
2023-08-24T18:41:29.394Z,7.03
2023-08-24T18:43:57.619Z,7.15
2023-08-24T18:46:25.917Z,5.50
2023-08-24T18:48:54.218Z,9.18
2023-08-24T18:51:23.553Z,6.68
2023-08-24T18:53:53.452Z,8.23
2023-08-24T18:56:21.806Z,9.32
2023-08-24T18:58:50.059Z,7.35
2023-08-24T19:01:18.999Z,8.32
2023-08-24T19:03:47.398Z,7.35
2023-08-24T19:06:25.600Z,7.28
2023-08-24T19:08:59.525Z,8.20
2023-08-24T19:11:27.889Z,8.77
2023-08-24T19:13:56.175Z,9.05
2023-08-24T19:16:24.516Z,8.38
2023-08-24T19:18:53.320Z,7.00
2023-08-24T19:21:23.208Z,6.85
2023-08-24T19:23:51.488Z,6.22
2023-08-24T19:26:21.604Z,9.70
2023-08-24T19:28:50.974Z,7.45
2023-08-24T19:31:19.378Z,7.63
2023-08-24T19:33:48.073Z,5.18
2023-08-24T19:36:16.337Z,5.95
2023-08-24T19:38:44.620Z,6.40
2023-08-24T19:41:12.997Z,5.88
2023-08-24T19:43:42.682Z,8.63
2023-08-24T19:46:11.063Z,8.07
2023-08-24T19:48:39.330Z,7.78
2023-08-24T19:51:07.583Z,6.72
2023-08-24T19:53:35.810Z,6.40
2023-08-24T19:56:04.300Z,4.93
2023-08-24T19:58:32.587Z,6.38
2023-08-24T20:01:02.773Z,6.80
2023-08-24T20:03:31.213Z,4.80
2023-08-24T20:06:01.603Z,5.30
2023-08-24T20:08:29.882Z,4.35
2023-08-24T20:11:02.231Z,6.07
2023-08-24T20:13:30.512Z,5.85
2023-08-24T20:16:06.952Z,8.68
2023-08-24T20:18:35.531Z,5.13
2023-08-24T20:21:06.470Z,5.18
2023-08-24T20:23:35.269Z,6.10
2023-08-24T20:26:05.909Z,5.20
2023-08-24T20:28:35.954Z,7.35
2023-08-24T20:31:04.506Z,5.40
2023-08-24T20:33:34.181Z,7.38
2023-08-24T20:36:02.437Z,7.15
2023-08-24T20:38:31.821Z,5.68
2023-08-24T20:41:03.022Z,6.57
2023-08-24T20:43:31.630Z,7.50
2023-08-24T20:45:59.931Z,5.57
2023-08-24T20:48:28.274Z,7.47
2023-08-24T20:50:58.757Z,7.32
2023-08-24T20:53:27.037Z,5.53
2023-08-24T20:55:55.774Z,4.97
2023-08-24T20:58:24.142Z,5.28
2023-08-24T21:00:53.654Z,6.70
2023-08-24T21:03:22.200Z,7.32
2023-08-24T21:05:50.548Z,4.75
2023-08-24T21:08:20.119Z,5.85
2023-08-24T21:10:48.424Z,9.18
2023-08-24T21:13:16.643Z,8.02
2023-08-24T21:15:47.390Z,6.68
2023-08-24T21:18:15.682Z,6.90
2023-08-24T21:20:44.010Z,6.10
2023-08-24T21:23:12.269Z,10.65
2023-08-24T21:25:41.865Z,8.45
2023-08-24T21:28:10.170Z,7.53
2023-08-24T21:30:38.455Z,7.07
2023-08-24T21:33:07.507Z,7.03
2023-08-24T21:35:36.069Z,7.18
2023-08-24T21:38:05.735Z,6.95
2023-08-24T21:40:33.993Z,5.88
2023-08-24T21:43:03.830Z,5.03
2023-08-24T21:45:32.146Z,6.97
2023-08-24T21:48:00.579Z,6.47
2023-08-24T21:50:29.692Z,6.13
2023-08-24T21:52:57.957Z,5.70
2023-08-24T21:55:26.385Z,7.93
2023-08-24T21:57:56.752Z,8.85
2023-08-24T22:00:26.456Z,9.68
2023-08-24T22:02:54.777Z,7.85
2023-08-24T22:05:23.096Z,9.25
2023-08-24T22:07:51.547Z,5.80
2023-08-24T22:10:20.198Z,6.93
2023-08-24T22:12:48.486Z,9.00
2023-08-24T22:15:16.812Z,6.60
2023-08-24T22:17:46.563Z,8.80
2023-08-24T22:20:15.127Z,5.78
2023-08-24T22:22:43.432Z,6.90
2023-08-24T22:25:11.758Z,5.43
2023-08-24T22:27:39.998Z,6.93
2023-08-24T22:30:09.675Z,6.97
2023-08-24T22:32:38.006Z,8.55
2023-08-24T22:35:08.243Z,9.02
2023-08-24T22:37:36.566Z,6.43
2023-08-24T22:40:07.104Z,5.63
2023-08-24T22:42:35.375Z,7.68
2023-08-24T22:45:04.464Z,7.28
2023-08-24T22:47:32.685Z,7.82
2023-08-24T22:50:04.938Z,9.35
2023-08-24T22:52:35.283Z,8.75
2023-08-24T22:55:04.859Z,7.18
2023-08-24T22:57:33.168Z,9.48
2023-08-24T23:00:02.037Z,6.57
2023-08-24T23:02:30.401Z,8.60
2023-08-24T23:04:58.692Z,8.15
2023-08-24T23:07:27.077Z,6.78
2023-08-24T23:09:56.707Z,7.65
2023-08-24T23:12:25.002Z,6.70
2023-08-24T23:14:54.188Z,8.48
2023-08-24T23:17:26.513Z,9.73
2023-08-24T23:19:55.183Z,7.85
2023-08-24T23:22:23.434Z,9.48
2023-08-24T23:24:52.014Z,6.65
2023-08-24T23:27:22.054Z,7.20
2023-08-24T23:29:50.392Z,8.57
2023-08-24T23:32:19.045Z,8.52
2023-08-24T23:34:47.374Z,8.07
2023-08-24T23:37:15.598Z,6.82
2023-08-24T23:39:44.444Z,8.80
2023-08-24T23:42:12.685Z,6.65
2023-08-24T23:44:42.235Z,6.45
2023-08-24T23:47:11.554Z,8.20
2023-08-24T23:49:39.794Z,7.15
2023-08-24T23:52:08.095Z,8.63
2023-08-24T23:54:36.304Z,13.00
2023-08-24T23:57:04.613Z,9.27
2023-08-24T23:59:32.935Z,8.25
